ADDS METAR Data INFO
IDs: Format: Raw Decoded Include TAF

Data at: 2217 UTC 22 Aug 2017

KMWL 222153Z AUTO 13008KT 10SM FEW080 34/18 A2998 RMK AO2 SLP135 T03390183
KMWL 222053Z AUTO VRB05KT 10SM SCT070 37/18 A2999 RMK AO2 SLP140 T03670183 58023
KMWL 221953Z AUTO 19007KT 10SM CLR 36/18 A3002 RMK AO2 SLP149 T03560183
KMWL 221853Z AUTO VRB05KT 10SM FEW080 34/19 A3004 RMK AO2 SLP157 T03390189
KMWL 221753Z AUTO VRB04KT 10SM CLR 34/21 A3006 RMK AO2 SLP164 T03390206 10344 20217 58003
KMWL 221653Z AUTO 26008KT 10SM CLR 33/21 A3007 RMK AO2 SLP168 T03280211
KMWL 221553Z AUTO 24007KT 10SM CLR 31/21 A3008 RMK AO2 SLP169 T03110211
KMWL 221453Z AUTO 21007KT 10SM CLR 29/22 A3007 RMK AO2 SLP169 T02890217 51010
KMWL 221353Z AUTO 13008KT 10SM CLR 26/21 A3007 RMK AO2 SLP168 T02560211
KMWL 221253Z AUTO 16004KT 10SM CLR 24/21 A3005 RMK AO2 SLP161 T02390206
KMWL 221153Z AUTO 13005KT 10SM CLR 22/20 A3004 RMK AO2 SLP158 T02170200 10250 20211 53004
KMWL 221053Z AUTO 12005KT 10SM CLR 22/19 A3002 RMK AO2 SLP152 T02170194
KMWL 220953Z AUTO 13004KT 10SM CLR 22/19 A3002 RMK AO2 SLP151 T02170194
KMWL 220853Z AUTO 13006KT 10SM CLR 22/20 A3003 RMK AO2 SLP154 T02220200 57007
KMWL 220753Z AUTO 14006KT 10SM CLR 24/20 A3004 RMK AO2 SLP156 T02390200
KMWL 220653Z AUTO 15007KT 10SM CLR 24/20 A3004 RMK AO2 SLP159 T02390200
KMWL 220553Z AUTO 15007KT 10SM CLR 24/20 A3005 RMK AO2 SLP161 T02440200 10328 20244 403500222 50004
KMWL 220453Z AUTO 15008KT 10SM CLR 26/20 A3006 RMK AO2 SLP163 T02610200
KMWL 220353Z AUTO 15006KT 10SM CLR 26/20 A3005 RMK AO2 SLP161 T02610200
KMWL 220253Z AUTO 14006KT 10SM CLR 27/19 A3004 RMK AO2 SLP157 T02670194 53013
KMWL 220153Z AUTO 14005KT 10SM CLR 28/19 A3001 RMK AO2 SLP148 T02780194
KMWL 220053Z AUTO 15006KT 10SM CLR 31/19 A3000 RMK AO2 SLP143 T03110189
KMWL 212353Z AUTO 15009KT 10SM CLR 33/19 A3000 RMK AO2 SLP143 T03280189 10350 20317 57010
KMWL 212253Z AUTO 17013KT 10SM FEW060 34/18 A3001 RMK AO2 SLP146 T03390183
KMWL 212153Z AUTO 16008G15KT 120V210 10SM FEW060 34/19 A3002 RMK AO2 SLP149 T03440189
KMWL 212053Z AUTO 15011KT 10SM FEW055 34/19 A3003 RMK AO2 SLP153 T03390194 58010
KMWL 211953Z AUTO 18009KT 10SM CLR 34/19 A3005 RMK AO2 SLP161 T03390189
KMWL 211853Z AUTO 13009KT 10SM CLR 33/20 A3006 RMK AO2 SLP163 T03280200
KMWL 211753Z AUTO 16008KT 10SM CLR 32/19 A3006 RMK AO2 SLP164 T03220194 10333 20222 58006
KMWL 211653Z AUTO 18009KT 10SM CLR 33/20 A3008 RMK AO2 SLP169 T03280200
KMWL 211553Z AUTO 19008KT 10SM CLR 31/20 A3008 RMK AO2 SLP170 T03110200
KMWL 211453Z AUTO 21007KT 10SM CLR 29/20 A3008 RMK AO2 SLP171 T02890200 51013
KMWL 211353Z AUTO 15005KT 10SM CLR 27/21 A3008 RMK AO2 SLP170 T02670206
KMWL 211253Z AUTO 00000KT 10SM CLR 24/21 A3006 RMK AO2 SLP165 T02390206
KMWL 211153Z AUTO 14007KT 10SM CLR 22/20 A3004 RMK AO2 SLP158 T02220200 10256 20222 53003
KMWL 211053Z AUTO 00000KT 10SM CLR 23/20 A3004 RMK AO2 SLP156 T02330200